sensor_id;sensor_type;location;lat;lon;timestamp;pressure;altitude;pressure_sealevel;temperature;humidity
64354;BME280;50681;53.334;-6.536;2022-12-17T00:01:13;100968.53;;;1.86;100.00
64354;BME280;50681;53.334;-6.536;2022-12-17T00:03:57;100973.28;;;2.03;100.00
64354;BME280;50681;53.334;-6.536;2022-12-17T00:06:41;100972.03;;;2.05;100.00
64354;BME280;50681;53.334;-6.536;2022-12-17T00:09:25;100981.06;;;2.23;100.00
64354;BME280;50681;53.334;-6.536;2022-12-17T00:12:09;100982.47;;;2.26;100.00
64354;BME280;50681;53.334;-6.536;2022-12-17T00:14:53;100956.50;;;2.02;100.00
64354;BME280;50681;53.334;-6.536;2022-12-17T00:17:37;100956.25;;;2.04;100.00
64354;BME280;50681;53.334;-6.536;2022-12-17T00:20:28;100967.06;;;2.09;100.00
64354;BME280;50681;53.334;-6.536;2022-12-17T00:23:12;100955.91;;;2.00;100.00
64354;BME280;50681;53.334;-6.536;2022-12-17T00:25:57;100954.88;;;2.01;100.00
64354;BME280;50681;53.334;-6.536;2022-12-17T00:28:41;100954.72;;;2.15;100.00
64354;BME280;50681;53.334;-6.536;2022-12-17T00:31:26;100955.47;;;2.22;100.00
64354;BME280;50681;53.334;-6.536;2022-12-17T00:34:10;100926.53;;;2.07;100.00
64354;BME280;50681;53.334;-6.536;2022-12-17T00:36:54;100929.56;;;2.11;100.00
64354;BME280;50681;53.334;-6.536;2022-12-17T00:39:37;100952.22;;;2.20;100.00
64354;BME280;50681;53.334;-6.536;2022-12-17T00:42:21;100945.00;;;2.20;100.00
64354;BME280;50681;53.334;-6.536;2022-12-17T00:45:06;100935.53;;;2.25;100.00
64354;BME280;50681;53.334;-6.536;2022-12-17T00:47:50;100944.13;;;2.27;100.00
64354;BME280;50681;53.334;-6.536;2022-12-17T00:50:34;100922.66;;;2.22;100.00
64354;BME280;50681;53.334;-6.536;2022-12-17T00:53:18;100928.28;;;2.13;100.00
64354;BME280;50681;53.334;-6.536;2022-12-17T00:56:02;100945.28;;;2.31;100.00
64354;BME280;50681;53.334;-6.536;2022-12-17T00:58:46;100921.28;;;2.19;100.00
64354;BME280;50681;53.334;-6.536;2022-12-17T01:01:30;100953.00;;;2.39;100.00
64354;BME280;50681;53.334;-6.536;2022-12-17T01:04:13;100949.81;;;2.30;100.00
64354;BME280;50681;53.334;-6.536;2022-12-17T01:06:58;100959.22;;;2.33;100.00
64354;BME280;50681;53.334;-6.536;2022-12-17T01:09:42;100955.75;;;2.32;100.00
64354;BME280;50681;53.334;-6.536;2022-12-17T01:12:26;100939.03;;;2.25;100.00
64354;BME280;50681;53.334;-6.536;2022-12-17T01:15:11;100954.00;;;2.57;100.00
64354;BME280;50681;53.334;-6.536;2022-12-17T01:17:55;100956.81;;;2.62;100.00
64354;BME280;50681;53.334;-6.536;2022-12-17T01:20:39;100936.47;;;2.49;100.00
64354;BME280;50681;53.334;-6.536;2022-12-17T01:23:22;100946.59;;;2.59;100.00
64354;BME280;50681;53.334;-6.536;2022-12-17T01:26:06;100957.66;;;2.74;100.00
64354;BME280;50681;53.334;-6.536;2022-12-17T01:28:50;100929.34;;;2.61;100.00
64354;BME280;50681;53.334;-6.536;2022-12-17T01:31:34;100938.03;;;2.69;100.00
64354;BME280;50681;53.334;-6.536;2022-12-17T01:34:18;100946.53;;;2.77;100.00
64354;BME280;50681;53.334;-6.536;2022-12-17T01:37:02;100944.47;;;2.79;100.00
64354;BME280;50681;53.334;-6.536;2022-12-17T01:39:47;100936.19;;;2.69;100.00
64354;BME280;50681;53.334;-6.536;2022-12-17T01:42:45;100938.31;;;2.79;100.00
64354;BME280;50681;53.334;-6.536;2022-12-17T01:45:39;100926.22;;;2.64;100.00
64354;BME280;50681;53.334;-6.536;2022-12-17T01:48:37;100950.50;;;2.87;100.00
64354;BME280;50681;53.334;-6.536;2022-12-17T01:51:26;100949.94;;;2.85;100.00
64354;BME280;50681;53.334;-6.536;2022-12-17T01:54:16;100929.34;;;2.61;100.00
64354;BME280;50681;53.334;-6.536;2022-12-17T01:57:01;100951.28;;;2.75;100.00
64354;BME280;50681;53.334;-6.536;2022-12-17T01:59:55;100952.47;;;2.79;100.00
64354;BME280;50681;53.334;-6.536;2022-12-17T02:02:41;100940.69;;;2.69;100.00
64354;BME280;50681;53.334;-6.536;2022-12-17T02:05:39;100944.66;;;2.78;100.00
64354;BME280;50681;53.334;-6.536;2022-12-17T02:08:43;100937.44;;;2.67;100.00
64354;BME280;50681;53.334;-6.536;2022-12-17T02:14:36;100960.59;;;2.85;100.00
64354;BME280;50681;53.334;-6.536;2022-12-17T02:17:24;100926.69;;;2.61;100.00
64354;BME280;50681;53.334;-6.536;2022-12-17T02:20:31;100963.59;;;2.76;100.00
64354;BME280;50681;53.334;-6.536;2022-12-17T02:26:12;100935.13;;;2.58;100.00
64354;BME280;50681;53.334;-6.536;2022-12-17T02:28:59;100964.34;;;2.65;100.00
64354;BME280;50681;53.334;-6.536;2022-12-17T02:31:45;100966.16;;;2.53;100.00
64354;BME280;50681;53.334;-6.536;2022-12-17T02:34:30;100953.06;;;2.51;100.00
64354;BME280;50681;53.334;-6.536;2022-12-17T02:37:14;100942.31;;;2.39;100.00
64354;BME280;50681;53.334;-6.536;2022-12-17T02:39:58;100950.19;;;2.34;100.00
64354;BME280;50681;53.334;-6.536;2022-12-17T02:42:43;100954.47;;;2.35;100.00
64354;BME280;50681;53.334;-6.536;2022-12-17T02:45:30;100957.69;;;2.25;100.00
64354;BME280;50681;53.334;-6.536;2022-12-17T02:48:15;100932.59;;;1.96;100.00
64354;BME280;50681;53.334;-6.536;2022-12-17T02:50:59;100948.56;;;1.96;100.00
64354;BME280;50681;53.334;-6.536;2022-12-17T02:53:44;100942.34;;;1.83;100.00
64354;BME280;50681;53.334;-6.536;2022-12-17T02:56:28;100934.50;;;1.88;100.00
64354;BME280;50681;53.334;-6.536;2022-12-17T02:59:12;100942.66;;;1.94;100.00
64354;BME280;50681;53.334;-6.536;2022-12-17T03:01:56;100953.75;;;1.90;100.00
64354;BME280;50681;53.334;-6.536;2022-12-17T03:04:40;100951.53;;;1.87;100.00
64354;BME280;50681;53.334;-6.536;2022-12-17T03:07:24;100930.44;;;1.67;100.00
64354;BME280;50681;53.334;-6.536;2022-12-17T03:10:08;100964.16;;;1.73;100.00
64354;BME280;50681;53.334;-6.536;2022-12-17T03:12:52;100944.06;;;1.52;100.00
64354;BME280;50681;53.334;-6.536;2022-12-17T03:15:36;100941.41;;;1.52;100.00
64354;BME280;50681;53.334;-6.536;2022-12-17T03:18:20;100951.13;;;1.65;100.00
64354;BME280;50681;53.334;-6.536;2022-12-17T03:21:04;100949.28;;;1.66;100.00
64354;BME280;50681;53.334;-6.536;2022-12-17T03:23:48;100955.19;;;1.68;100.00
64354;BME280;50681;53.334;-6.536;2022-12-17T03:26:32;100923.22;;;1.49;100.00
64354;BME280;50681;53.334;-6.536;2022-12-17T03:29:16;100953.72;;;1.72;100.00
64354;BME280;50681;53.334;-6.536;2022-12-17T03:32:00;100940.50;;;1.65;100.00
64354;BME280;50681;53.334;-6.536;2022-12-17T03:34:44;100926.00;;;1.61;100.00
64354;BME280;50681;53.334;-6.536;2022-12-17T03:37:28;100931.22;;;1.68;100.00
64354;BME280;50681;53.334;-6.536;2022-12-17T03:40:12;100926.19;;;1.59;100.00
64354;BME280;50681;53.334;-6.536;2022-12-17T03:42:56;100919.09;;;1.53;100.00
64354;BME280;50681;53.334;-6.536;2022-12-17T03:45:39;100919.75;;;1.49;100.00
64354;BME280;50681;53.334;-6.536;2022-12-17T03:48:23;100913.25;;;1.44;100.00
64354;BME280;50681;53.334;-6.536;2022-12-17T03:51:07;100920.63;;;1.42;100.00
64354;BME280;50681;53.334;-6.536;2022-12-17T03:53:52;100930.00;;;1.45;100.00
64354;BME280;50681;53.334;-6.536;2022-12-17T03:56:35;100911.94;;;1.28;100.00
64354;BME280;50681;53.334;-6.536;2022-12-17T03:59:20;100929.41;;;1.43;100.00
64354;BME280;50681;53.334;-6.536;2022-12-17T04:02:04;100936.59;;;1.17;100.00
64354;BME280;50681;53.334;-6.536;2022-12-17T04:04:47;100916.25;;;1.04;100.00
64354;BME280;50681;53.334;-6.536;2022-12-17T04:07:31;100920.53;;;1.05;100.00
64354;BME280;50681;53.334;-6.536;2022-12-17T04:10:15;100951.34;;;1.13;100.00
64354;BME280;50681;53.334;-6.536;2022-12-17T04:12:59;100923.63;;;1.02;100.00
64354;BME280;50681;53.334;-6.536;2022-12-17T04:15:43;100937.03;;;1.14;100.00
64354;BME280;50681;53.334;-6.536;2022-12-17T04:18:27;100919.59;;;0.93;100.00
64354;BME280;50681;53.334;-6.536;2022-12-17T04:21:11;100943.03;;;1.02;100.00
64354;BME280;50681;53.334;-6.536;2022-12-17T04:23:55;100910.84;;;0.85;100.00
64354;BME280;50681;53.334;-6.536;2022-12-17T04:26:39;100922.44;;;0.91;100.00
64354;BME280;50681;53.334;-6.536;2022-12-17T04:29:23;100929.56;;;0.97;100.00
64354;BME280;50681;53.334;-6.536;2022-12-17T04:32:07;100925.53;;;0.88;100.00
64354;BME280;50681;53.334;-6.536;2022-12-17T04:34:51;100931.94;;;0.80;100.00
64354;BME280;50681;53.334;-6.536;2022-12-17T04:37:35;100920.31;;;0.75;100.00
64354;BME280;50681;53.334;-6.536;2022-12-17T04:40:19;100930.09;;;0.81;100.00
64354;BME280;50681;53.334;-6.536;2022-12-17T04:43:08;100931.28;;;0.85;100.00
64354;BME280;50681;53.334;-6.536;2022-12-17T04:45:52;100942.94;;;0.84;100.00
64354;BME280;50681;53.334;-6.536;2022-12-17T04:48:37;100935.56;;;0.86;100.00
64354;BME280;50681;53.334;-6.536;2022-12-17T04:51:21;100929.91;;;0.76;100.00
64354;BME280;50681;53.334;-6.536;2022-12-17T04:54:05;100911.34;;;0.69;100.00
64354;BME280;50681;53.334;-6.536;2022-12-17T04:56:48;100917.09;;;0.66;100.00
64354;BME280;50681;53.334;-6.536;2022-12-17T04:59:32;100925.88;;;0.66;100.00
64354;BME280;50681;53.334;-6.536;2022-12-17T05:02:16;100902.88;;;0.53;100.00
64354;BME280;50681;53.334;-6.536;2022-12-17T05:05:00;100929.56;;;0.65;100.00
64354;BME280;50681;53.334;-6.536;2022-12-17T05:07:44;100919.78;;;0.59;100.00
64354;BME280;50681;53.334;-6.536;2022-12-17T05:10:29;100936.91;;;0.70;100.00
64354;BME280;50681;53.334;-6.536;2022-12-17T05:13:12;100933.66;;;0.68;100.00
64354;BME280;50681;53.334;-6.536;2022-12-17T05:15:57;100908.97;;;0.61;100.00
64354;BME280;50681;53.334;-6.536;2022-12-17T05:18:41;100940.78;;;0.74;100.00
64354;BME280;50681;53.334;-6.536;2022-12-17T05:21:26;100934.63;;;0.73;100.00
64354;BME280;50681;53.334;-6.536;2022-12-17T05:24:10;100925.69;;;0.61;100.00
64354;BME280;50681;53.334;-6.536;2022-12-17T05:26:54;100923.66;;;0.63;100.00
64354;BME280;50681;53.334;-6.536;2022-12-17T05:29:38;100910.59;;;0.55;100.00
64354;BME280;50681;53.334;-6.536;2022-12-17T05:32:22;100925.53;;;0.56;100.00
64354;BME280;50681;53.334;-6.536;2022-12-17T05:35:06;100942.00;;;0.71;100.00
64354;BME280;50681;53.334;-6.536;2022-12-17T05:37:50;100939.16;;;0.66;100.00
64354;BME280;50681;53.334;-6.536;2022-12-17T05:40:34;100928.34;;;0.61;100.00
64354;BME280;50681;53.334;-6.536;2022-12-17T05:43:18;100934.88;;;0.65;100.00
64354;BME280;50681;53.334;-6.536;2022-12-17T05:46:03;100934.44;;;0.68;100.00
64354;BME280;50681;53.334;-6.536;2022-12-17T05:48:47;100936.13;;;0.63;100.00
64354;BME280;50681;53.334;-6.536;2022-12-17T05:51:31;100910.84;;;0.47;100.00
64354;BME280;50681;53.334;-6.536;2022-12-17T05:54:15;100910.91;;;0.40;100.00
64354;BME280;50681;53.334;-6.536;2022-12-17T05:56:59;100913.75;;;0.38;100.00
64354;BME280;50681;53.334;-6.536;2022-12-17T05:59:44;100925.94;;;0.53;100.00
64354;BME280;50681;53.334;-6.536;2022-12-17T06:02:28;100913.34;;;0.41;100.00
64354;BME280;50681;53.334;-6.536;2022-12-17T06:05:12;100920.69;;;0.46;100.00
64354;BME280;50681;53.334;-6.536;2022-12-17T06:08:07;100940.41;;;0.64;100.00
64354;BME280;50681;53.334;-6.536;2022-12-17T06:10:51;100928.44;;;0.48;100.00
64354;BME280;50681;53.334;-6.536;2022-12-17T06:13:36;100946.97;;;0.61;100.00
64354;BME280;50681;53.334;-6.536;2022-12-17T06:16:20;100949.41;;;0.63;100.00
64354;BME280;50681;53.334;-6.536;2022-12-17T06:19:04;100929.25;;;0.48;100.00
64354;BME280;50681;53.334;-6.536;2022-12-17T06:21:49;100945.75;;;0.64;100.00
64354;BME280;50681;53.334;-6.536;2022-12-17T06:24:34;100955.69;;;0.75;100.00
64354;BME280;50681;53.334;-6.536;2022-12-17T06:27:18;100944.66;;;0.71;100.00
64354;BME280;50681;53.334;-6.536;2022-12-17T06:30:02;100941.63;;;0.68;100.00
64354;BME280;50681;53.334;-6.536;2022-12-17T06:32:46;100965.47;;;0.81;100.00
64354;BME280;50681;53.334;-6.536;2022-12-17T06:35:30;100966.88;;;0.84;100.00
64354;BME280;50681;53.334;-6.536;2022-12-17T06:38:14;100969.34;;;0.79;100.00
64354;BME280;50681;53.334;-6.536;2022-12-17T06:41:01;100961.97;;;0.81;100.00
64354;BME280;50681;53.334;-6.536;2022-12-17T06:43:45;100964.28;;;0.70;100.00
64354;BME280;50681;53.334;-6.536;2022-12-17T06:46:29;100968.41;;;0.66;100.00
64354;BME280;50681;53.334;-6.536;2022-12-17T06:49:13;100956.56;;;0.62;100.00
64354;BME280;50681;53.334;-6.536;2022-12-17T06:51:57;100947.81;;;0.55;100.00
64354;BME280;50681;53.334;-6.536;2022-12-17T06:54:41;100964.53;;;0.62;100.00
64354;BME280;50681;53.334;-6.536;2022-12-17T06:57:25;100955.19;;;0.53;100.00
64354;BME280;50681;53.334;-6.536;2022-12-17T07:00:09;100944.97;;;0.50;100.00
64354;BME280;50681;53.334;-6.536;2022-12-17T07:02:55;100940.25;;;0.52;100.00
64354;BME280;50681;53.334;-6.536;2022-12-17T07:05:53;100941.94;;;0.46;100.00
64354;BME280;50681;53.334;-6.536;2022-12-17T07:08:36;100957.59;;;0.61;100.00
64354;BME280;50681;53.334;-6.536;2022-12-17T07:11:20;100937.84;;;0.43;100.00
64354;BME280;50681;53.334;-6.536;2022-12-17T07:14:04;100955.16;;;0.60;100.00
64354;BME280;50681;53.334;-6.536;2022-12-17T07:16:48;100945.09;;;0.68;100.00
64354;BME280;50681;53.334;-6.536;2022-12-17T07:19:32;100952.75;;;0.51;100.00
64354;BME280;50681;53.334;-6.536;2022-12-17T07:22:16;100957.88;;;0.46;100.00
64354;BME280;50681;53.334;-6.536;2022-12-17T07:25:00;100983.75;;;0.64;100.00
64354;BME280;50681;53.334;-6.536;2022-12-17T07:27:52;100964.72;;;0.67;100.00
64354;BME280;50681;53.334;-6.536;2022-12-17T07:30:36;100961.97;;;0.81;100.00
64354;BME280;50681;53.334;-6.536;2022-12-17T07:33:20;100960.34;;;0.80;100.00
64354;BME280;50681;53.334;-6.536;2022-12-17T07:36:04;100956.03;;;0.85;100.00
64354;BME280;50681;53.334;-6.536;2022-12-17T07:38:48;100945.59;;;0.84;100.00
64354;BME280;50681;53.334;-6.536;2022-12-17T07:41:31;100971.31;;;0.97;100.00
64354;BME280;50681;53.334;-6.536;2022-12-17T07:44:15;100943.59;;;0.79;100.00
64354;BME280;50681;53.334;-6.536;2022-12-17T07:46:59;100968.06;;;0.95;100.00
64354;BME280;50681;53.334;-6.536;2022-12-17T07:49:43;100950.13;;;0.83;100.00
64354;BME280;50681;53.334;-6.536;2022-12-17T07:52:27;100970.97;;;0.86;100.00
64354;BME280;50681;53.334;-6.536;2022-12-17T07:55:11;100975.25;;;0.87;100.00
64354;BME280;50681;53.334;-6.536;2022-12-17T07:58:04;100976.47;;;0.92;100.00
64354;BME280;50681;53.334;-6.536;2022-12-17T08:00:49;100982.56;;;0.92;100.00
64354;BME280;50681;53.334;-6.536;2022-12-17T08:03:32;100987.09;;;0.92;100.00
64354;BME280;50681;53.334;-6.536;2022-12-17T08:06:16;100976.06;;;0.88;100.00
64354;BME280;50681;53.334;-6.536;2022-12-17T08:09:21;101001.09;;;1.12;100.00
64354;BME280;50681;53.334;-6.536;2022-12-17T08:12:05;100977.06;;;0.94;100.00
64354;BME280;50681;53.334;-6.536;2022-12-17T08:14:49;100990.47;;;1.06;100.00
64354;BME280;50681;53.334;-6.536;2022-12-17T08:17:33;100980.25;;;1.02;100.00
64354;BME280;50681;53.334;-6.536;2022-12-17T08:20:17;100987.97;;;1.11;100.00
64354;BME280;50681;53.334;-6.536;2022-12-17T08:23:02;100993.03;;;1.19;100.00
64354;BME280;50681;53.334;-6.536;2022-12-17T08:25:46;100988.59;;;1.13;100.00
64354;BME280;50681;53.334;-6.536;2022-12-17T08:28:30;100985.94;;;1.13;100.00
64354;BME280;50681;53.334;-6.536;2022-12-17T08:31:14;100983.88;;;1.15;100.00
64354;BME280;50681;53.334;-6.536;2022-12-17T08:33:58;100987.53;;;1.21;100.00
64354;BME280;50681;53.334;-6.536;2022-12-17T08:36:42;100987.88;;;1.24;100.00
64354;BME280;50681;53.334;-6.536;2022-12-17T08:39:26;100973.50;;;1.07;100.00
64354;BME280;50681;53.334;-6.536;2022-12-17T08:42:10;100991.41;;;1.18;100.00
64354;BME280;50681;53.334;-6.536;2022-12-17T08:44:54;101002.44;;;1.22;100.00
64354;BME280;50681;53.334;-6.536;2022-12-17T08:47:38;100995.53;;;1.14;100.00
64354;BME280;50681;53.334;-6.536;2022-12-17T08:50:21;100990.69;;;1.04;100.00
64354;BME280;50681;53.334;-6.536;2022-12-17T08:53:05;100985.81;;;1.01;100.00
64354;BME280;50681;53.334;-6.536;2022-12-17T08:55:49;101006.41;;;1.12;100.00
64354;BME280;50681;53.334;-6.536;2022-12-17T08:59:06;101016.78;;;1.21;100.00
64354;BME280;50681;53.334;-6.536;2022-12-17T09:01:50;101011.91;;;1.11;100.00
64354;BME280;50681;53.334;-6.536;2022-12-17T09:04:34;101021.69;;;1.17;100.00
64354;BME280;50681;53.334;-6.536;2022-12-17T09:07:18;101013.56;;;1.12;100.00
64354;BME280;50681;53.334;-6.536;2022-12-17T09:10:02;100999.66;;;1.10;100.00
64354;BME280;50681;53.334;-6.536;2022-12-17T09:12:47;101024.34;;;1.24;100.00
64354;BME280;50681;53.334;-6.536;2022-12-17T09:15:31;101013.72;;;1.17;100.00
64354;BME280;50681;53.334;-6.536;2022-12-17T09:18:31;101025.53;;;1.28;100.00
64354;BME280;50681;53.334;-6.536;2022-12-17T09:21:16;101021.06;;;1.22;100.00
64354;BME280;50681;53.334;-6.536;2022-12-17T09:24:00;101023.94;;;1.20;100.00
64354;BME280;50681;53.334;-6.536;2022-12-17T09:26:45;101022.66;;;1.29;100.00
64354;BME280;50681;53.334;-6.536;2022-12-17T09:29:29;101008.81;;;1.21;100.00
64354;BME280;50681;53.334;-6.536;2022-12-17T09:32:14;101027.72;;;1.38;100.00
64354;BME280;50681;53.334;-6.536;2022-12-17T09:34:58;101018.88;;;1.44;100.00
64354;BME280;50681;53.334;-6.536;2022-12-17T09:37:42;101043.44;;;1.71;100.00
64354;BME280;50681;53.334;-6.536;2022-12-17T09:40:26;101046.44;;;1.82;100.00
64354;BME280;50681;53.334;-6.536;2022-12-17T09:43:25;101028.16;;;1.85;100.00
64354;BME280;50681;53.334;-6.536;2022-12-17T09:46:27;101048.47;;;2.05;100.00
64354;BME280;50681;53.334;-6.536;2022-12-17T09:49:19;101041.00;;;2.14;100.00
64354;BME280;50681;53.334;-6.536;2022-12-17T09:52:31;101050.56;;;2.22;100.00
64354;BME280;50681;53.334;-6.536;2022-12-17T09:55:21;101051.59;;;2.20;100.00
64354;BME280;50681;53.334;-6.536;2022-12-17T09:58:17;101044.13;;;2.29;100.00
64354;BME280;50681;53.334;-6.536;2022-12-17T10:01:02;101040.03;;;2.27;100.00
64354;BME280;50681;53.334;-6.536;2022-12-17T10:03:47;101036.13;;;2.48;100.00
64354;BME280;50681;53.334;-6.536;2022-12-17T10:06:32;101036.28;;;2.53;100.00
64354;BME280;50681;53.334;-6.536;2022-12-17T10:09:18;101019.91;;;2.31;100.00
64354;BME280;50681;53.334;-6.536;2022-12-17T10:12:18;101024.19;;;2.50;100.00
64354;BME280;50681;53.334;-6.536;2022-12-17T10:15:02;101034.88;;;2.50;100.00
64354;BME280;50681;53.334;-6.536;2022-12-17T10:17:47;101029.63;;;2.44;100.00
64354;BME280;50681;53.334;-6.536;2022-12-17T10:20:38;101051.88;;;2.68;100.00
64354;BME280;50681;53.334;-6.536;2022-12-17T10:23:29;101031.59;;;2.48;100.00
64354;BME280;50681;53.334;-6.536;2022-12-17T10:26:26;101048.03;;;2.45;100.00
64354;BME280;50681;53.334;-6.536;2022-12-17T10:29:18;101060.63;;;2.57;100.00
64354;BME280;50681;53.334;-6.536;2022-12-17T10:35:06;101060.97;;;2.79;100.00
64354;BME280;50681;53.334;-6.536;2022-12-17T10:37:51;101047.50;;;2.74;100.00
64354;BME280;50681;53.334;-6.536;2022-12-17T10:40:35;101064.97;;;2.88;100.00
64354;BME280;50681;53.334;-6.536;2022-12-17T10:46:10;101061.09;;;3.03;100.00
64354;BME280;50681;53.334;-6.536;2022-12-17T10:49:24;101045.66;;;3.05;100.00
64354;BME280;50681;53.334;-6.536;2022-12-17T10:52:37;101057.72;;;3.26;100.00
64354;BME280;50681;53.334;-6.536;2022-12-17T10:55:24;101058.88;;;3.30;100.00
64354;BME280;50681;53.334;-6.536;2022-12-17T11:01:08;101033.09;;;3.24;100.00
64354;BME280;50681;53.334;-6.536;2022-12-17T11:03:56;101062.84;;;3.40;100.00
64354;BME280;50681;53.334;-6.536;2022-12-17T11:06:55;101040.97;;;3.19;100.00
64354;BME280;50681;53.334;-6.536;2022-12-17T11:12:40;101057.22;;;3.72;100.00
64354;BME280;50681;53.334;-6.536;2022-12-17T11:15:28;101062.94;;;3.87;100.00
64354;BME280;50681;53.334;-6.536;2022-12-17T11:18:28;101043.97;;;3.89;100.00
64354;BME280;50681;53.334;-6.536;2022-12-17T11:21:20;101029.94;;;4.05;100.00
64354;BME280;50681;53.334;-6.536;2022-12-17T11:24:12;101055.72;;;4.23;100.00
64354;BME280;50681;53.334;-6.536;2022-12-17T11:26:58;101016.69;;;4.10;100.00
64354;BME280;50681;53.334;-6.536;2022-12-17T11:29:45;101044.22;;;4.35;100.00
64354;BME280;50681;53.334;-6.536;2022-12-17T11:32:49;101039.06;;;4.45;100.00
64354;BME280;50681;53.334;-6.536;2022-12-17T11:38:38;101011.53;;;4.33;100.00
64354;BME280;50681;53.334;-6.536;2022-12-17T11:44:31;101045.56;;;4.49;100.00
64354;BME280;50681;53.334;-6.536;2022-12-17T11:47:32;101035.94;;;4.48;100.00
64354;BME280;50681;53.334;-6.536;2022-12-17T11:53:53;101031.59;;;4.59;100.00
64354;BME280;50681;53.334;-6.536;2022-12-17T11:57:01;101013.69;;;4.60;100.00
64354;BME280;50681;53.334;-6.536;2022-12-17T12:00:01;101017.41;;;4.59;100.00
64354;BME280;50681;53.334;-6.536;2022-12-17T12:09:09;101020.88;;;5.00;100.00
64354;BME280;50681;53.334;-6.536;2022-12-17T12:12:04;101011.97;;;4.82;100.00
64354;BME280;50681;53.334;-6.536;2022-12-17T12:21:14;101015.53;;;4.59;100.00
64354;BME280;50681;53.334;-6.536;2022-12-17T12:30:22;101008.09;;;4.61;100.00
64354;BME280;50681;53.334;-6.536;2022-12-17T12:36:12;100986.97;;;4.48;100.00
64354;BME280;50681;53.334;-6.536;2022-12-17T12:38:58;101004.50;;;4.55;100.00
64354;BME280;50681;53.334;-6.536;2022-12-17T12:41:53;101005.66;;;4.60;100.00
64354;BME280;50681;53.334;-6.536;2022-12-17T12:44:44;101001.63;;;4.45;100.00
64354;BME280;50681;53.334;-6.536;2022-12-17T12:53:36;100992.28;;;4.60;100.00
64354;BME280;50681;53.334;-6.536;2022-12-17T12:56:25;101003.31;;;4.92;100.00
64354;BME280;50681;53.334;-6.536;2022-12-17T12:59:18;100998.59;;;4.82;100.00
64354;BME280;50681;53.334;-6.536;2022-12-17T13:02:28;101003.41;;;4.97;100.00
64354;BME280;50681;53.334;-6.536;2022-12-17T13:05:27;101001.22;;;4.94;100.00
64354;BME280;50681;53.334;-6.536;2022-12-17T13:10:39;101000.50;;;4.99;100.00
64354;BME280;50681;53.334;-6.536;2022-12-17T13:15:48;101009.69;;;5.03;100.00
64354;BME280;50681;53.334;-6.536;2022-12-17T13:18:22;101007.97;;;4.97;100.00
64354;BME280;50681;53.334;-6.536;2022-12-17T13:23:42;100975.84;;;4.97;100.00
64354;BME280;50681;53.334;-6.536;2022-12-17T13:28:39;100987.84;;;4.94;100.00
64354;BME280;50681;53.334;-6.536;2022-12-17T13:31:24;100987.59;;;4.96;100.00
64354;BME280;50681;53.334;-6.536;2022-12-17T13:36:31;101011.41;;;5.09;100.00
64354;BME280;50681;53.334;-6.536;2022-12-17T13:41:53;100979.31;;;4.97;100.00
64354;BME280;50681;53.334;-6.536;2022-12-17T13:44:23;100986.97;;;5.06;100.00
64354;BME280;50681;53.334;-6.536;2022-12-17T13:46:51;100967.25;;;4.95;100.00
64354;BME280;50681;53.334;-6.536;2022-12-17T13:49:28;100973.84;;;5.04;100.00
64354;BME280;50681;53.334;-6.536;2022-12-17T13:52:16;100982.03;;;5.14;100.00
64354;BME280;50681;53.334;-6.536;2022-12-17T13:54:42;100985.03;;;5.18;100.00
64354;BME280;50681;53.334;-6.536;2022-12-17T13:57:18;100987.22;;;5.21;100.00
64354;BME280;50681;53.334;-6.536;2022-12-17T13:59:50;100974.50;;;5.11;100.00
64354;BME280;50681;53.334;-6.536;2022-12-17T14:02:27;100989.34;;;5.19;100.00
64354;BME280;50681;53.334;-6.536;2022-12-17T14:04:55;100969.63;;;5.08;100.00
64354;BME280;50681;53.334;-6.536;2022-12-17T14:07:22;100985.78;;;5.13;100.00
64354;BME280;50681;53.334;-6.536;2022-12-17T14:09:49;100967.66;;;4.87;100.00
64354;BME280;50681;53.334;-6.536;2022-12-17T14:12:16;100981.59;;;4.89;100.00
64354;BME280;50681;53.334;-6.536;2022-12-17T14:14:47;100987.03;;;4.94;100.00
64354;BME280;50681;53.334;-6.536;2022-12-17T14:17:27;100973.13;;;4.80;100.00
64354;BME280;50681;53.334;-6.536;2022-12-17T14:20:23;100978.72;;;4.78;100.00
64354;BME280;50681;53.334;-6.536;2022-12-17T14:22:52;100985.72;;;4.79;100.00
64354;BME280;50681;53.334;-6.536;2022-12-17T14:25:21;100963.88;;;4.70;100.00
64354;BME280;50681;53.334;-6.536;2022-12-17T14:28:19;100971.19;;;4.75;100.00
64354;BME280;50681;53.334;-6.536;2022-12-17T14:30:45;100980.25;;;4.74;100.00
64354;BME280;50681;53.334;-6.536;2022-12-17T14:33:29;100974.09;;;4.74;100.00
64354;BME280;50681;53.334;-6.536;2022-12-17T14:36:00;100977.50;;;4.69;100.00
64354;BME280;50681;53.334;-6.536;2022-12-17T14:38:27;100969.28;;;4.59;100.00
64354;BME280;50681;53.334;-6.536;2022-12-17T14:40:53;100971.47;;;4.62;100.00
64354;BME280;50681;53.334;-6.536;2022-12-17T14:43:27;100971.47;;;4.62;100.00
64354;BME280;50681;53.334;-6.536;2022-12-17T14:45:58;100961.72;;;4.55;100.00
64354;BME280;50681;53.334;-6.536;2022-12-17T14:48:43;100941.09;;;4.39;100.00
64354;BME280;50681;53.334;-6.536;2022-12-17T14:51:31;100943.19;;;4.37;100.00
64354;BME280;50681;53.334;-6.536;2022-12-17T14:54:19;100966.59;;;4.59;100.00
64354;BME280;50681;53.334;-6.536;2022-12-17T14:56:47;100956.75;;;4.47;100.00
64354;BME280;50681;53.334;-6.536;2022-12-17T14:59:32;100968.81;;;4.50;100.00
64354;BME280;50681;53.334;-6.536;2022-12-17T15:04:34;100962.16;;;4.23;100.00
64354;BME280;50681;53.334;-6.536;2022-12-17T15:07:00;100976.81;;;4.21;100.00
64354;BME280;50681;53.334;-6.536;2022-12-17T15:09:26;100976.25;;;4.07;100.00
64354;BME280;50681;53.334;-6.536;2022-12-17T15:11:51;100986.25;;;4.00;100.00
64354;BME280;50681;53.334;-6.536;2022-12-17T15:14:17;100961.78;;;3.79;100.00
64354;BME280;50681;53.334;-6.536;2022-12-17T15:16:42;100953.06;;;3.72;100.00
64354;BME280;50681;53.334;-6.536;2022-12-17T15:19:08;100970.13;;;3.71;100.00
64354;BME280;50681;53.334;-6.536;2022-12-17T15:21:33;100971.63;;;3.66;100.00
64354;BME280;50681;53.334;-6.536;2022-12-17T15:24:00;100972.22;;;3.68;100.00